createdAt,value
2018-11-23T00:02:26.713Z,23.63
2018-11-23T00:07:30.510Z,25.07
2018-11-23T00:12:34.313Z,23.10
2018-11-23T00:17:38.533Z,24.33
2018-11-23T00:22:42.647Z,24.50
2018-11-23T00:27:46.450Z,24.93
2018-11-23T00:32:50.837Z,23.87
2018-11-23T00:37:55.107Z,23.30
2018-11-23T00:43:00.128Z,24.53
2018-11-23T00:48:04.157Z,24.97
2018-11-23T00:53:07.984Z,24.35
2018-11-23T00:58:12.028Z,25.80
2018-11-23T01:03:15.814Z,24.83
2018-11-23T01:08:19.601Z,26.33
2018-11-23T01:13:23.403Z,25.27
2018-11-23T01:18:27.309Z,24.70
2018-11-23T01:23:31.097Z,24.07
2018-11-23T01:28:34.911Z,23.62
2018-11-23T01:33:38.781Z,24.53
2018-11-23T01:38:42.665Z,25.03
2018-11-23T01:43:46.472Z,24.33
2018-11-23T01:48:50.487Z,24.53
2018-11-23T01:53:54.562Z,24.20
2018-11-23T01:58:58.902Z,24.40
2018-11-23T02:04:02.695Z,25.13
2018-11-23T02:09:07.581Z,24.27
2018-11-23T02:14:11.375Z,24.90
2018-11-23T02:19:15.398Z,24.90
2018-11-23T02:24:19.234Z,25.33
2018-11-23T02:29:23.038Z,25.17
2018-11-23T02:34:26.817Z,26.12
2018-11-23T02:39:30.595Z,24.40
2018-11-23T02:44:34.454Z,25.23
2018-11-23T02:49:38.362Z,23.63
2018-11-23T02:54:42.781Z,24.17
2018-11-23T02:59:46.807Z,24.97
2018-11-23T03:04:50.830Z,23.03
2018-11-23T03:09:55.912Z,24.43
2018-11-23T03:14:59.709Z,24.40
2018-11-23T03:20:03.750Z,24.90
2018-11-23T03:25:08.496Z,26.50
2018-11-23T03:30:17.498Z,25.20
2018-11-23T03:35:22.147Z,23.63
2018-11-23T03:40:26.183Z,24.87
2018-11-23T03:45:29.990Z,25.60
2018-11-23T03:50:33.773Z,26.23
2018-11-23T03:55:37.795Z,26.07
2018-11-23T04:00:41.819Z,25.60
2018-11-23T04:05:45.660Z,24.13
2018-11-23T04:10:49.547Z,24.23
2018-11-23T04:15:53.386Z,25.87
2018-11-23T04:21:02.193Z,25.20
2018-11-23T04:26:06.042Z,28.33
2018-11-23T04:31:10.134Z,25.20
2018-11-23T04:36:13.946Z,25.83
2018-11-23T04:41:17.739Z,25.90
2018-11-23T04:46:21.546Z,26.20
2018-11-23T04:51:25.624Z,25.23
2018-11-23T04:56:29.481Z,24.30
2018-11-23T05:01:33.281Z,25.30
2018-11-23T05:06:37.331Z,24.23
2018-11-23T05:11:41.415Z,25.43
2018-11-23T05:16:45.286Z,25.03
2018-11-23T05:21:49.110Z,23.43
2018-11-23T05:26:52.926Z,24.67
2018-11-23T05:31:56.760Z,24.80
2018-11-23T05:37:00.848Z,24.23
2018-11-23T05:42:04.933Z,25.80
2018-11-23T05:47:08.797Z,24.63
2018-11-23T05:52:12.598Z,25.90
2018-11-23T05:57:16.721Z,27.10
2018-11-23T06:02:20.811Z,25.93
2018-11-23T06:07:25.252Z,25.50
2018-11-23T06:12:29.361Z,25.87
2018-11-23T06:17:33.173Z,32.90
2018-11-23T06:22:37.370Z,25.80
2018-11-23T06:27:41.245Z,26.50
2018-11-23T06:33:02.512Z,25.80
2018-11-23T06:38:06.376Z,24.03
2018-11-23T06:43:10.179Z,25.47
2018-11-23T06:48:14.188Z,24.77
2018-11-23T06:53:18.267Z,26.00
2018-11-23T06:58:22.106Z,25.17
2018-11-23T07:03:26.189Z,25.20
2018-11-23T07:08:29.998Z,25.27
2018-11-23T07:13:34.313Z,24.70
2018-11-23T07:18:38.358Z,25.60
2018-11-23T07:23:42.206Z,25.87
2018-11-23T07:28:45.989Z,25.23
2018-11-23T07:33:49.816Z,25.40
2018-11-23T07:38:53.620Z,26.93
2018-11-23T07:43:57.482Z,26.70
2018-11-23T07:49:01.270Z,27.83
2018-11-23T07:54:05.331Z,27.03
2018-11-23T07:59:09.156Z,25.97
2018-11-23T08:04:13.191Z,26.60
2018-11-23T08:09:17.045Z,25.60
2018-11-23T08:14:21.245Z,27.60
2018-11-23T08:19:25.040Z,26.23
2018-11-23T08:24:28.874Z,27.45
2018-11-23T08:29:32.686Z,27.43
2018-11-23T08:34:36.723Z,25.27
2018-11-23T08:39:40.546Z,25.33
2018-11-23T08:44:44.358Z,24.13
2018-11-23T08:49:48.161Z,25.20
2018-11-23T08:54:52.469Z,26.07
2018-11-23T08:59:56.316Z,24.63
2018-11-23T09:05:00.130Z,25.00
2018-11-23T09:10:03.971Z,24.83
2018-11-23T09:15:10.339Z,23.60
2018-11-23T09:20:14.737Z,23.70
2018-11-23T09:25:19.949Z,23.70
2018-11-23T09:30:25.182Z,23.43
2018-11-23T09:35:29.321Z,23.77
2018-11-23T09:40:33.113Z,23.23
2018-11-23T09:45:37.179Z,24.10
2018-11-23T09:50:40.997Z,23.97
2018-11-23T09:55:44.805Z,23.97
2018-11-23T10:00:48.627Z,23.50
2018-11-23T10:05:52.686Z,23.63
2018-11-23T10:10:56.553Z,23.57
2018-11-23T10:16:00.359Z,23.17
2018-11-23T10:21:04.214Z,21.40
2018-11-23T10:26:08.055Z,22.77
2018-11-23T10:31:12.150Z,22.67
2018-11-23T10:36:15.997Z,22.03
2018-11-23T10:41:20.100Z,22.93
2018-11-23T10:46:24.202Z,21.13
2018-11-23T10:51:28.044Z,21.10
2018-11-23T10:56:31.973Z,20.03
2018-11-23T11:01:42.334Z,21.33
2018-11-23T11:06:51.054Z,20.50
2018-11-23T11:11:54.885Z,20.83
2018-11-23T11:16:59.654Z,20.47
2018-11-23T11:22:03.482Z,19.93
2018-11-23T11:27:07.334Z,20.87
2018-11-23T11:32:11.149Z,21.27
2018-11-23T11:37:14.942Z,20.47
2018-11-23T11:42:18.748Z,20.07
2018-11-23T11:47:22.533Z,20.67
2018-11-23T11:52:26.627Z,21.63
2018-11-23T11:57:30.631Z,20.87
2018-11-23T12:02:34.441Z,20.43
2018-11-23T12:07:38.624Z,20.00
2018-11-23T12:12:42.389Z,20.03
2018-11-23T12:17:46.196Z,19.43
2018-11-23T12:22:50.430Z,19.33
2018-11-23T12:27:54.292Z,19.07
2018-11-23T12:32:58.474Z,19.70
2018-11-23T12:38:02.522Z,20.13
2018-11-23T12:43:06.335Z,19.43
2018-11-23T12:48:10.216Z,19.70
2018-11-23T12:53:14.265Z,19.57
2018-11-23T12:58:18.045Z,19.17
2018-11-23T13:03:21.845Z,18.95
2018-11-23T13:08:25.942Z,18.40
2018-11-23T13:13:29.772Z,18.33
2018-11-23T13:18:33.565Z,19.43
2018-11-23T13:23:37.615Z,19.07
2018-11-23T13:28:41.530Z,18.30
2018-11-23T13:33:45.329Z,18.17
2018-11-23T13:38:49.109Z,18.70
2018-11-23T13:43:53.160Z,18.17
2018-11-23T13:48:56.991Z,19.83
2018-11-23T13:54:00.810Z,18.45
2018-11-23T13:59:04.775Z,18.37
2018-11-23T14:04:08.687Z,18.53
2018-11-23T14:09:12.668Z,19.13
2018-11-23T14:14:16.474Z,19.07
2018-11-23T14:19:20.281Z,18.30
2018-11-23T14:24:24.108Z,17.50
2018-11-23T14:29:27.897Z,18.23
2018-11-23T14:34:31.706Z,17.60
2018-11-23T14:39:35.502Z,17.63
2018-11-23T14:44:39.620Z,18.57
2018-11-23T14:49:43.418Z,17.37
2018-11-23T14:54:47.229Z,18.67
2018-11-23T14:59:51.022Z,17.13
2018-11-23T15:04:54.849Z,17.47
2018-11-23T15:09:59.059Z,17.47
2018-11-23T15:15:02.878Z,18.07
2018-11-23T15:20:18.591Z,17.60
2018-11-23T15:25:22.392Z,17.67
2018-11-23T15:30:28.578Z,17.70
2018-11-23T15:35:33.598Z,17.07
2018-11-23T15:40:37.439Z,16.27
2018-11-23T15:45:41.282Z,17.77
2018-11-23T15:50:45.242Z,17.30
2018-11-23T15:55:49.041Z,17.40
2018-11-23T16:00:52.851Z,17.57
2018-11-23T16:05:56.789Z,17.00
2018-11-23T16:11:00.815Z,16.97
2018-11-23T16:16:04.797Z,17.43
2018-11-23T16:21:09.830Z,18.33
2018-11-23T16:26:13.748Z,17.73
2018-11-23T16:31:17.518Z,17.77
2018-11-23T16:36:21.318Z,19.07
2018-11-23T16:41:25.122Z,18.83
2018-11-23T16:46:28.954Z,18.98
2018-11-23T16:51:32.991Z,17.57
2018-11-23T16:56:36.791Z,18.00
2018-11-23T17:01:40.602Z,18.23
2018-11-23T17:06:44.402Z,18.63
2018-11-23T17:11:48.747Z,20.65
2018-11-23T17:16:52.533Z,20.27
2018-11-23T17:21:56.349Z,18.73
2018-11-23T17:27:00.122Z,18.37
2018-11-23T17:32:03.921Z,18.30
2018-11-23T17:37:08.259Z,19.23
2018-11-23T17:42:12.065Z,21.40
2018-11-23T17:47:15.850Z,20.83
2018-11-23T17:52:19.711Z,21.43
2018-11-23T17:57:23.851Z,22.63
2018-11-23T18:02:29.258Z,22.40
2018-11-23T18:07:33.060Z,24.47
2018-11-23T18:12:37.123Z,20.20
2018-11-23T18:17:41.033Z,18.48
2018-11-23T18:22:45.344Z,18.90
2018-11-23T18:27:49.523Z,18.80
2018-11-23T18:32:53.594Z,17.83
2018-11-23T18:37:58.247Z,18.40
2018-11-23T18:43:02.075Z,18.43
2018-11-23T18:48:05.903Z,19.67
2018-11-23T18:53:09.746Z,18.67
2018-11-23T18:58:13.556Z,19.20
2018-11-23T19:03:17.355Z,18.80
2018-11-23T19:08:21.166Z,18.87
2018-11-23T19:13:24.977Z,19.87
2018-11-23T19:18:28.817Z,20.70
2018-11-23T19:23:32.618Z,19.20
2018-11-23T19:28:36.432Z,19.10
2018-11-23T19:33:40.487Z,19.73
2018-11-23T19:38:44.311Z,19.00
2018-11-23T19:43:48.108Z,19.27
2018-11-23T19:48:52.164Z,19.42
2018-11-23T19:53:56.071Z,19.50
2018-11-23T19:58:59.885Z,19.05
2018-11-23T20:04:03.690Z,19.57
2018-11-23T20:09:09.545Z,19.03
2018-11-23T20:14:13.391Z,19.30
2018-11-23T20:19:17.189Z,19.33
2018-11-23T20:24:21.001Z,20.00
2018-11-23T20:29:25.098Z,20.57
2018-11-23T20:34:28.955Z,19.30
2018-11-23T20:39:32.777Z,19.43
2018-11-23T20:44:36.848Z,18.87
2018-11-23T20:49:45.746Z,19.97
2018-11-23T20:54:44.745Z,19.20
2018-11-23T20:59:48.529Z,20.00
2018-11-23T21:04:52.587Z,19.13
2018-11-23T21:09:56.672Z,19.50
2018-11-23T21:15:00.472Z,20.63
2018-11-23T21:20:05.047Z,18.63
2018-11-23T21:25:09.720Z,19.80
2018-11-23T21:30:15.749Z,20.77
2018-11-23T21:35:19.566Z,20.60
2018-11-23T21:40:23.383Z,21.47
2018-11-23T21:45:27.218Z,20.50
2018-11-23T21:50:31.013Z,20.70
2018-11-23T21:55:34.803Z,22.13
2018-11-23T22:00:38.724Z,21.43
2018-11-23T22:05:42.551Z,21.47
2018-11-23T22:10:46.330Z,22.70
2018-11-23T22:15:50.149Z,20.70
2018-11-23T22:20:53.989Z,19.77
2018-11-23T22:25:58.079Z,20.93
2018-11-23T22:31:01.903Z,18.50
2018-11-23T22:36:05.893Z,20.20
2018-11-23T22:41:09.795Z,20.53
2018-11-23T22:46:13.699Z,19.70
2018-11-23T22:51:17.510Z,19.57
2018-11-23T22:56:21.373Z,19.77
2018-11-23T23:01:25.171Z,20.93
2018-11-23T23:06:28.993Z,20.50
2018-11-23T23:11:33.021Z,20.00
2018-11-23T23:16:36.811Z,19.03
2018-11-23T23:21:40.610Z,20.15
2018-11-23T23:26:44.399Z,19.50
2018-11-23T23:31:48.447Z,20.00
2018-11-23T23:36:52.245Z,20.37
2018-11-23T23:41:56.304Z,19.27
2018-11-23T23:47:00.342Z,19.70
2018-11-23T23:52:04.146Z,19.83
2018-11-23T23:57:08.208Z,19.33
